Glade Hill, Virginia
Current Conditions -  °F | °C
As of 9:54 PM on Tuesday 25 Nov 2014 (Local Time) from KROA Reporting Station
Broken Clouds Broken Clouds  
Wind Chill:   Ceiling: 25000
Heat Index:   Visibility: 10mi
Dew Point: -1°   Wind: 0mph
Humidity: 58%   Direction: NA
Pressure: 30.12"   Gusts: NA
Location:  37.0073°N, 79.7681°W
Report Text: KROA 260254Z 00000KT 10SM BKN250 07/M01 A3012 RMK AO2 SLP200 T00721006 53003
Loading
Personal Weather Stations






























Interactive Weather Map New forecast layout! Learn more

10-Day Weather Forecast

Advertisements
Track Severe Weather on mobile